Monday, June 18, 2018, 8:55 PM EDT
Back to Local

KOWD, Norwood Memorial Airport

Location: Norwood, MA, United States Lat: 42.183
Local Time: 8:55 PM EDT ( 0:55 GMT) Lon: -71.167
Time Zone: US/Eastern Elev: 49 ft

Show me the last for .
Show Decoded

2018-06-18 19:53 METAR KOWD 182353Z COR 19004KT 5SM -RA SCT065 BKN090 OVC110 26/21 A2978 RMK AO2
                 RAB31 SLP083 P0000 60000 T02560211 10328 20256 53007 =
2018-06-18 19:32 METAR KOWD 182332Z VRB04KT 5SM -RA SCT070 BKN095 28/19 A2979 RMK AO2 LTG DSNT N
                 AND NE RAB31 P0000 T02780194 =
2018-06-18 19:17 METAR KOWD 182317Z COR 21011KT 10SM VCTS SCT100 28/19 A2977 RMK AO2 TS N MOV E
                 LTG DSNT N AND NE T02830194 =
2018-06-18 18:53 METAR KOWD 182253Z 20010G18KT 10SM CLR 29/19 A2975 RMK AO2 LTG DSNT N AND NW
                 SLP073 T02890194 =
2018-06-18 17:53 METAR KOWD 182153Z 20018G26KT 10SM CLR 30/19 A2973 RMK AO2 PK WND 23029/2114
                 SLP067 T03000194 =
2018-06-18 16:53 METAR KOWD 182053Z 20012G22KT 10SM CLR 32/21 A2976 RMK AO2 SLP077 T03220211
                 56026 =
2018-06-18 15:53 METAR KOWD 181953Z 19012G21KT 10SM CLR 32/22 A2978 RMK AO2 SLP084 T03170217 =
2018-06-18 14:53 METAR KOWD 181853Z 18012KT 10SM CLR 31/22 A2981 RMK AO2 SLP095 T03110217 =
2018-06-18 13:53 METAR KOWD 181753Z 19011G21KT 10SM CLR 31/21 A2984 RMK AO2 SLP102 T03060211
                 10311 20228 58024 =
2018-06-18 12:53 METAR KOWD 181653Z 23013G19KT 10SM CLR 31/21 A2987 RMK AO2 SLP115 T03110211 =
2018-06-18 11:53 METAR KOWD 181553Z 20013KT 10SM CLR 30/21 A2990 RMK AO2 SLP124 T03000206 =
2018-06-18 10:53 METAR KOWD 181453Z 20009KT 10SM CLR 29/20 A2991 RMK AO2 SLP126 T02940200 58018 =
2018-06-18 09:53 METAR KOWD 181353Z 22011G18KT 10SM CLR 28/19 A2992 RMK AO2 SLP132 T02830189 =
2018-06-18 08:53 METAR KOWD 181253Z 20009KT 10SM CLR 27/18 A2995 RMK AO2 SLP140 T02670183 =
2018-06-18 07:53 METAR KOWD 181153Z 21009KT 10SM CLR 23/17 A2996 RMK AO2 SLP144 T02280167 10228
                 20156 58017 =
2018-06-18 06:53 METAR KOWD 181053Z 19007KT 10SM CLR 21/16 A2998 RMK AO2 SLP152 T02110161 =
2018-06-18 05:53 METAR KOWD 180953Z AUTO 16005KT 10SM CLR 18/16 A2999 RMK AO2 SLP155 T01830156 =
2018-06-18 04:53 METAR KOWD 180853Z AUTO 18005KT 10SM CLR 17/15 A3001 RMK AO2 SLP161 T01720150
                 56010 =
2018-06-18 03:53 METAR KOWD 180753Z AUTO 18004KT 10SM CLR 17/15 A3001 RMK AO2 SLP161 T01720150 =
2018-06-18 02:53 METAR KOWD 180653Z AUTO 17004KT 10SM CLR 16/14 A3002 RMK AO2 SLP166 T01610139 =
2018-06-18 01:53 METAR KOWD 180553Z AUTO 16005KT 10SM CLR 17/14 A3004 RMK AO2 SLP171 T01720144
                 10256 20172 56003 =
2018-06-18 00:53 METAR KOWD 180453Z AUTO 17004KT 10SM CLR 18/14 A3004 RMK AO2 SLP171 T01830144
                 403280117 =
2018-06-17 23:53 METAR KOWD 180353Z AUTO 18006KT 10SM CLR 19/14 A3004 RMK AO2 SLP170 T01940144 =
2018-06-17 22:53 METAR KOWD 180253Z AUTO 18005KT 10SM CLR 20/13 A3005 RMK AO2 SLP174 T02000133
                 57002 =
2018-06-17 21:53 METAR KOWD 180153Z 18004KT 10SM CLR 22/13 A3005 RMK AO2 SLP176 T02170133 =

Support USWX by starting your Amazon purchase here.